Time;durP1;ratioP1;P1;durP2;ratioP2;P2;SDS_P1;SDS_P2;PMS_P1;PMS_P2;Temp;Humidity;BMP_temperature;BMP_pressure;BME280_temperature;BME280_humidity;BME280_pressure;Samples;Min_cycle;Max_cycle;Signal;HPM_P1;HPM_P2
2024/01/11 00:00:16;;;;;;;27.07;12.97;;;-4.30;99.90;;;;;;5076562;28;20079;-39
2024/01/11 00:02:41;;;;;;;26.48;13.18;;;-4.30;99.90;;;;;;5076454;28;20558;-39
2024/01/11 00:05:07;;;;;;;26.42;14.13;;;-4.30;99.90;;;;;;5076701;28;20132;-39
2024/01/11 00:07:33;;;;;;;27.87;12.80;;;-4.30;99.90;;;;;;5075427;28;20453;-39
2024/01/11 00:10:01;;;;;;;31.85;14.90;;;-4.30;99.90;;;;;;5076337;28;20045;-39
2024/01/11 00:12:27;;;;;;;26.13;13.20;;;-4.30;99.90;;;;;;5076195;28;20515;-39
2024/01/11 00:14:53;;;;;;;30.48;14.10;;;-4.20;99.90;;;;;;5076295;28;20041;-39
2024/01/11 00:17:18;;;;;;;27.60;12.90;;;-4.20;99.90;;;;;;5076091;28;20500;-39
2024/01/11 00:19:44;;;;;;;29.60;14.23;;;-4.20;99.90;;;;;;5076001;28;20051;-39
2024/01/11 00:22:10;;;;;;;32.35;15.20;;;-4.20;99.90;;;;;;5076269;28;20044;-39
2024/01/11 00:24:35;;;;;;;36.03;16.73;;;-4.20;99.90;;;;;;5076129;28;20041;-39
2024/01/11 00:27:01;;;;;;;31.95;14.90;;;-4.20;99.90;;;;;;5075140;28;20059;-39
2024/01/11 00:29:28;;;;;;;30.08;14.65;;;-4.20;99.90;;;;;;5076032;28;20053;-39
2024/01/11 00:31:54;;;;;;;30.40;13.88;;;-4.20;99.90;;;;;;5075924;28;20055;-39
2024/01/11 00:34:21;;;;;;;32.13;14.80;;;-4.20;99.90;;;;;;5075657;28;20040;-39
2024/01/11 00:36:47;;;;;;;32.25;15.88;;;-4.20;99.90;;;;;;5075894;28;20092;-39
2024/01/11 00:39:13;;;;;;;28.83;13.75;;;-4.20;99.90;;;;;;5075906;28;20049;-39
2024/01/11 00:41:39;;;;;;;31.02;14.10;;;-4.20;99.90;;;;;;5075842;28;20055;-39
2024/01/11 00:44:04;;;;;;;33.70;16.60;;;-4.20;99.90;;;;;;5075807;28;20080;-39
2024/01/11 00:46:30;;;;;;;30.52;14.90;;;-4.20;99.90;;;;;;5075661;28;20048;-39
2024/01/11 00:48:56;;;;;;;32.30;13.70;;;-4.20;99.90;;;;;;5075573;28;20048;-39
2024/01/11 00:51:22;;;;;;;37.30;17.67;;;-4.20;99.90;;;;;;5076361;28;20090;-39
2024/01/11 00:53:47;;;;;;;30.85;15.70;;;-4.20;99.90;;;;;;5075505;28;20403;-39
2024/01/11 00:56:20;;;;;;;33.97;16.10;;;-4.20;99.90;;;;;;5075429;28;20048;-39
2024/01/11 00:58:45;;;;;;;34.40;15.70;;;-4.20;99.90;;;;;;5075403;28;20056;-39
2024/01/11 01:01:12;;;;;;;31.40;14.80;;;-4.20;99.90;;;;;;5075196;28;20102;-39
2024/01/11 01:03:38;;;;;;;32.20;15.43;;;-4.10;99.90;;;;;;5075350;28;20041;-39
2024/01/11 01:06:04;;;;;;;33.27;15.50;;;-4.10;99.90;;;;;;5074160;28;20044;-39
2024/01/11 01:08:30;;;;;;;30.65;14.18;;;-4.10;99.90;;;;;;5075280;28;20082;-39
2024/01/11 01:10:56;;;;;;;32.10;15.15;;;-4.10;99.90;;;;;;5075615;28;20091;-39
2024/01/11 01:13:21;;;;;;;30.48;14.77;;;-4.20;99.90;;;;;;5075029;28;20081;-39
2024/01/11 01:15:47;;;;;;;32.20;16.45;;;-4.20;99.90;;;;;;5073770;28;20516;-39
2024/01/11 01:18:13;;;;;;;33.40;15.13;;;-4.20;99.90;;;;;;5075165;28;20059;-39
2024/01/11 01:20:38;;;;;;;31.83;14.18;;;-4.20;99.90;;;;;;5075081;28;20093;-39
2024/01/11 01:23:04;;;;;;;31.85;15.70;;;-4.20;99.90;;;;;;5075033;28;20055;-39
2024/01/11 01:25:30;;;;;;;34.28;15.05;;;-4.20;99.90;;;;;;5074951;28;20091;-39
2024/01/11 01:27:56;;;;;;;32.17;14.15;;;-4.20;99.90;;;;;;5073755;28;20392;-39
2024/01/11 01:30:23;;;;;;;31.03;14.67;;;-4.20;99.90;;;;;;5074871;28;20101;-39
2024/01/11 01:32:48;;;;;;;35.03;15.60;;;-4.20;99.90;;;;;;5073550;28;20051;-39
2024/01/11 01:35:14;;;;;;;31.27;14.30;;;-4.20;99.90;;;;;;5073531;28;20059;-39
2024/01/11 01:37:40;;;;;;;29.08;14.13;;;-4.20;99.90;;;;;;5074755;28;20049;-39
2024/01/11 01:40:07;;;;;;;33.05;16.88;;;-4.30;99.90;;;;;;5074612;28;20052;-39
2024/01/11 01:42:33;;;;;;;34.45;15.05;;;-4.30;99.90;;;;;;5074573;28;20088;-39
2024/01/11 01:44:59;;;;;;;35.10;14.18;;;-4.30;99.90;;;;;;5074404;28;20048;-39
2024/01/11 01:47:26;;;;;;;33.72;15.20;;;-4.30;99.90;;;;;;5074861;28;20045;-39
2024/01/11 01:49:52;;;;;;;33.08;16.08;;;-4.30;99.90;;;;;;5074402;28;20041;-39
2024/01/11 01:52:19;;;;;;;31.27;14.27;;;-4.30;99.90;;;;;;5074461;28;20049;-39
2024/01/11 01:54:44;;;;;;;34.63;16.55;;;-4.30;99.90;;;;;;5074210;28;20302;-39
2024/01/11 01:57:12;;;;;;;30.77;14.80;;;-4.30;99.90;;;;;;5073208;28;20044;-39
2024/01/11 01:59:38;;;;;;;;;;;-4.30;99.90;;;;;;5074172;28;20048;-39
2024/01/11 02:02:05;;;;;;;30.67;13.05;;;-4.30;99.90;;;;;;5074552;28;19944;-39
2024/01/11 02:04:31;;;;;;;;;;;-4.30;99.90;;;;;;5074703;28;20044;-39
2024/01/11 02:06:58;;;;;;;27.75;12.32;;;-4.40;99.90;;;;;;5074138;28;19924;-39
2024/01/11 02:09:24;;;;;;;28.60;13.13;;;-4.50;99.90;;;;;;5073930;28;20502;-39
2024/01/11 02:11:53;;;;;;;27.10;13.30;;;-4.50;99.90;;;;;;5073930;28;20052;-39
2024/01/11 02:14:19;;;;;;;31.70;14.98;;;-4.60;99.90;;;;;;5073756;28;20298;-39
2024/01/11 02:16:45;;;;;;;30.92;13.82;;;-4.60;99.90;;;;;;5073605;28;20190;-39
2024/01/11 02:19:18;;;;;;;29.97;13.47;;;-4.60;99.90;;;;;;5073952;28;20044;-39
2024/01/11 02:21:46;;;;;;;32.03;14.60;;;-4.60;99.90;;;;;;5073675;28;20087;-39
2024/01/11 02:24:13;;;;;;;30.73;14.75;;;-4.60;99.90;;;;;;5073672;28;20041;-39
2024/01/11 02:26:59;;;;;;;28.83;14.00;;;-4.50;99.90;;;;;;5072461;28;20488;-39
2024/01/11 02:29:25;;;;;;;33.58;13.25;;;-4.50;99.90;;;;;;5073708;28;20094;-39
2024/01/11 02:31:51;;;;;;;31.75;14.52;;;-4.50;99.90;;;;;;5073693;28;20041;-39
2024/01/11 02:34:17;;;;;;;31.50;15.55;;;-4.50;99.90;;;;;;5073555;28;20067;-39
2024/01/11 02:36:43;;;;;;;37.20;17.02;;;-4.50;99.90;;;;;;5073546;28;20090;-39
2024/01/11 02:39:10;;;;;;;31.92;13.77;;;-4.50;99.90;;;;;;5073357;28;20055;-39
2024/01/11 02:41:37;;;;;;;36.83;14.10;;;-4.50;99.90;;;;;;5073243;28;20474;-39
2024/01/11 02:44:03;;;;;;;31.95;13.90;;;-4.60;99.90;;;;;;5073420;28;20503;-39
2024/01/11 02:46:30;;;;;;;31.90;12.20;;;-4.50;99.90;;;;;;5073478;28;20123;-39
2024/01/11 02:48:55;;;;;;;31.05;13.65;;;-4.60;99.90;;;;;;5073346;28;20160;-39
2024/01/11 02:51:21;;;;;;;27.35;12.60;;;-4.60;99.90;;;;;;5073321;28;20459;-39
2024/01/11 02:53:47;;;;;;;29.23;13.57;;;-4.60;99.90;;;;;;5072995;28;20045;-39
2024/01/11 02:56:12;;;;;;;31.17;13.50;;;-4.60;99.90;;;;;;5073303;28;20086;-39
2024/01/11 02:58:38;;;;;;;26.60;12.52;;;-4.70;99.90;;;;;;5073583;28;20048;-39
2024/01/11 03:01:03;;;;;;;29.75;13.50;;;-4.60;99.90;;;;;;5073488;28;20122;-39
2024/01/11 03:03:29;;;;;;;31.90;13.27;;;-4.70;99.90;;;;;;5073592;28;20036;-39
2024/01/11 03:05:55;;;;;;;32.90;14.43;;;-4.60;99.90;;;;;;5072222;28;20395;-39
2024/01/11 03:08:21;;;;;;;28.08;13.00;;;-4.60;99.90;;;;;;5073419;28;20050;-39
2024/01/11 03:10:46;;;;;;;35.17;15.05;;;-4.50;99.90;;;;;;5074116;28;20430;-39
2024/01/11 03:13:12;;;;;;;31.55;14.23;;;-4.50;99.90;;;;;;5077501;28;20040;-39
2024/01/11 03:15:38;;;;;;;34.55;16.70;;;-4.50;99.90;;;;;;5077595;28;20396;-39
2024/01/11 03:18:05;;;;;;;30.55;13.63;;;-4.50;99.90;;;;;;5077443;28;20056;-39
2024/01/11 03:20:30;;;;;;;28.95;13.40;;;-4.50;99.90;;;;;;5077306;28;20123;-39
2024/01/11 03:22:56;;;;;;;31.08;14.02;;;-4.40;99.90;;;;;;5077171;28;20548;-39
2024/01/11 03:25:22;;;;;;;30.55;14.80;;;-4.40;99.90;;;;;;5077091;28;20052;-39
2024/01/11 03:27:47;;;;;;;29.40;13.30;;;-4.40;99.90;;;;;;5077233;28;20051;-43
2024/01/11 03:30:13;;;;;;;31.88;14.05;;;-4.30;99.90;;;;;;5077187;28;20080;-39
2024/01/11 03:32:39;;;;;;;35.97;14.38;;;-4.30;99.90;;;;;;5076920;28;20060;-39
2024/01/11 03:35:08;;;;;;;31.63;14.73;;;-4.30;99.90;;;;;;5076940;28;20131;-39
2024/01/11 03:37:34;;;;;;;32.28;14.60;;;-4.30;99.90;;;;;;5076978;28;20102;-39
2024/01/11 03:40:02;;;;;;;33.38;14.75;;;-4.30;99.90;;;;;;5076980;28;20113;-39
2024/01/11 03:42:28;;;;;;;35.72;13.60;;;-4.30;99.90;;;;;;5076907;28;20517;-39
2024/01/11 03:44:54;;;;;;;33.33;14.98;;;-4.30;99.90;;;;;;5076966;28;20083;-39
2024/01/11 03:47:20;;;;;;;32.33;15.10;;;-4.30;99.90;;;;;;5076851;28;20123;-39
2024/01/11 03:49:45;;;;;;;32.60;14.45;;;-4.30;99.90;;;;;;5076854;28;20052;-39
2024/01/11 03:52:11;;;;;;;32.08;13.77;;;-4.20;99.90;;;;;;5076464;28;20045;-39
2024/01/11 03:54:37;;;;;;;35.63;15.02;;;-4.20;99.90;;;;;;5076535;28;20106;-39
2024/01/11 03:57:02;;;;;;;32.03;14.40;;;-4.20;99.90;;;;;;5075633;28;20051;-39
2024/01/11 03:59:28;;;;;;;33.20;15.02;;;-4.20;99.90;;;;;;5092544;28;20166;-39
2024/01/11 04:01:54;;;;;;;36.72;15.40;;;-4.10;99.90;;;;;;5075583;28;20059;-39
2024/01/11 04:04:20;;;;;;;35.70;16.33;;;-4.10;99.90;;;;;;5076380;28;20040;-39
2024/01/11 04:06:46;;;;;;;35.20;15.40;;;-4.00;99.90;;;;;;5076380;28;20497;-39
2024/01/11 04:09:11;;;;;;;38.20;17.52;;;-4.00;99.90;;;;;;5076182;28;20514;-39
2024/01/11 04:11:37;;;;;;;34.58;15.80;;;-4.00;99.90;;;;;;5075257;28;20062;-38
2024/01/11 04:14:03;;;;;;;35.35;16.20;;;-3.90;99.90;;;;;;5076313;28;20041;-39
2024/01/11 04:16:29;;;;;;;36.65;16.30;;;-3.90;99.90;;;;;;5075344;28;20060;-39
2024/01/11 04:18:54;;;;;;;36.67;18.00;;;-3.90;99.90;;;;;;5074278;28;20037;-39
2024/01/11 04:21:30;;;;;;;35.45;16.83;;;-3.90;99.90;;;;;;5074744;28;20047;-39
2024/01/11 04:23:56;;;;;;;39.25;17.85;;;-3.80;99.90;;;;;;5075051;28;20048;-39
2024/01/11 04:26:22;;;;;;;37.78;16.75;;;-3.80;99.90;;;;;;5075080;28;20084;-39
2024/01/11 04:28:49;;;;;;;36.25;16.67;;;-3.80;99.90;;;;;;5074989;28;20436;-39
2024/01/11 04:31:16;;;;;;;39.83;16.95;;;-3.80;99.90;;;;;;5075229;28;20044;-39
2024/01/11 04:33:46;;;;;;;36.83;16.63;;;-3.70;99.90;;;;;;5074856;28;20052;-39
2024/01/11 04:36:12;;;;;;;36.03;15.80;;;-3.70;99.90;;;;;;5074621;28;20080;-39
2024/01/11 04:38:38;;;;;;;39.30;18.08;;;-3.70;99.90;;;;;;5074873;28;20087;-39
2024/01/11 04:41:08;;;;;;;41.88;17.38;;;-3.70;99.90;;;;;;5074760;28;20087;-39
2024/01/11 04:43:39;;;;;;;39.35;17.23;;;-3.60;99.90;;;;;;5074703;28;20040;-39
2024/01/11 04:46:18;;;;;;;34.38;15.85;;;-3.60;99.90;;;;;;5074767;28;20044;-39
2024/01/11 04:48:44;;;;;;;33.38;15.93;;;-3.50;99.90;;;;;;5074515;28;20051;-39
2024/01/11 04:51:10;;;;;;;35.70;17.03;;;-3.50;99.90;;;;;;5073531;28;20055;-39
2024/01/11 04:53:40;;;;;;;37.17;17.13;;;-3.40;99.90;;;;;;5074530;28;20298;-39
2024/01/11 04:56:11;;;;;;;40.13;18.40;;;-3.50;99.90;;;;;;5073801;28;20076;-39
2024/01/11 04:58:39;;;;;;;37.88;17.48;;;-3.40;99.90;;;;;;5074448;28;20048;-39
2024/01/11 05:01:06;;;;;;;37.05;17.33;;;-3.30;99.90;;;;;;5073162;28;20399;-39
2024/01/11 05:03:31;;;;;;;40.65;17.90;;;-3.30;99.90;;;;;;5074898;28;20044;-39
2024/01/11 05:05:58;;;;;;;39.45;17.20;;;-3.30;99.90;;;;;;5074614;28;20055;-39
2024/01/11 05:08:25;;;;;;;35.85;16.52;;;-3.20;99.90;;;;;;5074724;28;20040;-39
2024/01/11 05:10:51;;;;;;;;;;;-3.20;99.90;;;;;;5074604;28;20048;-39
2024/01/11 05:13:18;;;;;;;32.67;14.98;;;-3.20;99.90;;;;;;5074025;28;20264;-39
2024/01/11 05:15:44;;;;;;;36.15;15.77;;;-3.20;99.90;;;;;;5035464;28;1103843;-39
2024/01/11 05:18:10;;;;;;;39.47;16.40;;;-3.20;99.90;;;;;;5074963;28;20055;-39
2024/01/11 05:20:36;;;;;;;36.67;16.90;;;-3.10;99.90;;;;;;5075183;28;20048;-39
2024/01/11 05:23:02;;;;;;;37.45;18.15;;;-3.10;99.90;;;;;;5075229;28;20043;-39
2024/01/11 05:25:28;;;;;;;36.53;17.10;;;-3.10;99.90;;;;;;5073852;28;20442;-39
2024/01/11 05:27:53;;;;;;;38.67;16.80;;;-3.00;99.90;;;;;;5074873;28;20050;-39
2024/01/11 05:30:19;;;;;;;37.92;17.63;;;-3.00;99.90;;;;;;5074880;28;20049;-39
2024/01/11 05:32:44;;;;;;;37.63;17.00;;;-3.00;99.90;;;;;;5075123;28;20044;-39
2024/01/11 05:35:10;;;;;;;37.97;17.17;;;-3.00;99.90;;;;;;5074302;28;20048;-39
2024/01/11 05:37:36;;;;;;;37.33;18.05;;;-2.90;99.90;;;;;;5074769;28;20044;-39
2024/01/11 05:40:02;;;;;;;41.78;16.80;;;-2.90;99.90;;;;;;5074759;28;20084;-39
2024/01/11 05:42:28;;;;;;;39.27;17.90;;;-2.90;99.90;;;;;;5074685;28;20124;-39
2024/01/11 05:44:54;;;;;;;43.13;18.63;;;-2.90;99.90;;;;;;5074537;28;20845;-39
2024/01/11 05:47:19;;;;;;;38.60;17.15;;;-2.90;99.90;;;;;;5074559;28;20048;-39
2024/01/11 05:49:45;;;;;;;40.15;17.35;;;-2.90;99.90;;;;;;5074513;28;20092;-39
2024/01/11 05:52:11;;;;;;;41.97;18.48;;;-2.80;99.90;;;;;;5074911;28;20044;-39
2024/01/11 05:54:37;;;;;;;42.40;18.77;;;-2.80;99.90;;;;;;5074629;28;20106;-39
2024/01/11 05:57:03;;;;;;;39.42;17.50;;;-2.80;99.90;;;;;;5074500;28;20504;-39
2024/01/11 05:59:28;;;;;;;39.00;16.85;;;-2.80;99.90;;;;;;5074140;28;20487;-40
2024/01/11 06:01:54;;;;;;;37.28;16.98;;;-2.80;99.90;;;;;;5074258;28;20496;-39
2024/01/11 06:04:19;;;;;;;39.08;18.30;;;-2.70;99.90;;;;;;5073696;28;20471;-39
2024/01/11 06:06:45;;;;;;;35.70;16.98;;;-2.70;99.90;;;;;;5074176;28;20551;-39
2024/01/11 06:09:11;;;;;;;37.83;16.83;;;-2.70;99.90;;;;;;5073129;28;20049;-39
2024/01/11 06:11:37;;;;;;;36.97;16.20;;;-2.70;99.90;;;;;;5073883;28;20506;-39
2024/01/11 06:14:02;;;;;;;40.47;17.63;;;-2.70;99.90;;;;;;5073780;28;20051;-39
2024/01/11 06:16:29;;;;;;;38.60;16.25;;;-2.60;99.90;;;;;;5073630;28;20059;-39
2024/01/11 06:18:55;;;;;;;38.13;16.67;;;-2.60;99.90;;;;;;5074021;28;20067;-39
2024/01/11 06:21:20;;;;;;;35.58;16.83;;;-2.60;99.90;;;;;;5073902;28;20056;-39
2024/01/11 06:23:46;;;;;;;36.15;16.25;;;-2.50;99.90;;;;;;5074065;28;20387;-39
2024/01/11 06:26:12;;;;;;;34.17;15.18;;;-2.50;99.90;;;;;;5074015;28;20048;-39
2024/01/11 06:28:37;;;;;;;35.42;16.33;;;-2.50;99.90;;;;;;5073736;28;20545;-39
2024/01/11 06:31:03;;;;;;;33.70;16.58;;;-2.50;99.90;;;;;;5073731;28;20115;-39
2024/01/11 06:33:29;;;;;;;32.55;16.00;;;-2.50;99.90;;;;;;5073739;28;20086;-39
2024/01/11 06:35:55;;;;;;;39.50;17.30;;;-2.50;99.90;;;;;;5073759;28;20051;-39
2024/01/11 06:38:21;;;;;;;36.50;16.45;;;-2.40;99.90;;;;;;5073843;28;20045;-38
2024/01/11 06:40:48;;;;;;;38.67;17.05;;;-2.40;99.90;;;;;;5073791;28;20193;-39
2024/01/11 06:43:14;;;;;;;33.25;16.40;;;-2.30;99.90;;;;;;5073758;28;20044;-38
2024/01/11 06:45:42;;;;;;;34.38;16.30;;;-2.30;99.90;;;;;;5073237;28;20110;-39
2024/01/11 06:48:08;;;;;;;33.00;15.80;;;-2.30;99.90;;;;;;5073611;28;20045;-39
2024/01/11 06:50:34;;;;;;;35.28;14.98;;;-2.30;99.90;;;;;;5073820;28;20063;-39
2024/01/11 06:53:00;;;;;;;33.15;14.98;;;-2.30;99.90;;;;;;5073378;28;20503;-39
2024/01/11 06:55:25;;;;;;;34.53;15.73;;;-2.30;99.90;;;;;;5089442;28;20053;-39
2024/01/11 06:57:51;;;;;;;33.40;15.02;;;-2.20;99.90;;;;;;5072291;28;20297;-39
2024/01/11 07:00:17;;;;;;;30.77;14.38;;;-2.20;99.90;;;;;;5073319;28;20487;-39
2024/01/11 07:02:43;;;;;;;32.13;14.05;;;-2.20;99.90;;;;;;5073545;28;20399;-39
2024/01/11 07:05:08;;;;;;;33.08;14.48;;;-2.20;99.90;;;;;;5072664;28;20040;-39
2024/01/11 07:07:34;;;;;;;33.88;14.82;;;-2.10;99.90;;;;;;5055817;28;20109;-39
2024/01/11 07:10:00;;;;;;;31.63;14.55;;;-2.10;99.90;;;;;;5073396;28;20091;-39
2024/01/11 07:12:25;;;;;;;35.53;15.57;;;-2.10;99.90;;;;;;5072167;28;20041;-39
2024/01/11 07:14:51;;;;;;;34.35;15.43;;;-2.10;99.90;;;;;;5073029;28;20037;-39
2024/01/11 07:17:17;;;;;;;31.90;15.80;;;-2.10;99.90;;;;;;5073530;28;20060;-39
2024/01/11 07:19:43;;;;;;;31.35;13.82;;;-2.00;99.90;;;;;;5073502;28;20053;-39
2024/01/11 07:22:09;;;;;;;32.97;13.98;;;-2.00;99.90;;;;;;5072428;28;20051;-39
2024/01/11 07:24:37;;;;;;;36.00;15.68;;;-2.00;99.90;;;;;;5073211;28;20052;-39
2024/01/11 07:27:09;;;;;;;34.15;15.00;;;-1.90;99.90;;;;;;5073215;28;20398;-39
2024/01/11 07:29:35;;;;;;;30.17;14.35;;;-1.90;99.90;;;;;;5073340;28;20048;-39
2024/01/11 07:32:00;;;;;;;35.22;15.13;;;-1.90;99.90;;;;;;5072473;28;20048;-39
2024/01/11 07:34:27;;;;;;;30.60;13.65;;;-1.90;99.90;;;;;;5073077;28;20044;-39
2024/01/11 07:36:53;;;;;;;32.65;16.05;;;-1.80;99.90;;;;;;5073576;28;20041;-39
2024/01/11 07:39:19;;;;;;;33.80;15.52;;;-1.80;99.90;;;;;;5073373;28;20102;-39
2024/01/11 07:41:45;;;;;;;36.00;15.47;;;-1.80;99.90;;;;;;5072950;28;20041;-39
2024/01/11 07:44:10;;;;;;;30.80;14.07;;;-1.70;99.90;;;;;;5073120;28;20048;-39
2024/01/11 07:46:36;;;;;;;31.85;14.57;;;-1.70;99.90;;;;;;5073157;28;20043;-39
2024/01/11 07:49:05;;;;;;;32.90;14.88;;;-1.70;99.90;;;;;;5073156;28;20471;-39
2024/01/11 07:51:31;;;;;;;32.78;14.50;;;-1.70;99.90;;;;;;5072935;28;20070;-39
2024/01/11 07:53:57;;;;;;;31.90;14.10;;;-1.70;99.90;;;;;;5071913;28;20499;-39
2024/01/11 07:56:22;;;;;;;31.92;13.75;;;-1.60;99.90;;;;;;5071957;28;20109;-39
2024/01/11 07:58:48;;;;;;;29.48;13.73;;;-1.60;99.90;;;;;;5076732;28;20446;-39
2024/01/11 08:01:15;;;;;;;30.00;12.73;;;-1.60;99.90;;;;;;5076669;28;20446;-39
2024/01/11 08:03:41;;;;;;;31.75;14.27;;;-1.50;99.90;;;;;;5076556;28;20401;-39
2024/01/11 08:06:07;;;;;;;32.90;13.70;;;-1.50;99.90;;;;;;5076509;28;20060;-39
2024/01/11 08:08:34;;;;;;;30.73;14.02;;;-1.50;99.90;;;;;;5076457;28;20437;-39
2024/01/11 08:10:59;;;;;;;32.95;15.07;;;-1.50;99.90;;;;;;5076295;28;20415;-39
2024/01/11 08:13:25;;;;;;;28.83;13.40;;;-1.50;99.90;;;;;;5076136;28;20037;-39
2024/01/11 08:15:53;;;;;;;31.55;13.27;;;-1.40;99.90;;;;;;5076160;28;20064;-39
2024/01/11 08:18:19;;;;;;;29.58;13.57;;;-1.40;99.90;;;;;;5076308;28;20052;-39
2024/01/11 08:20:44;;;;;;;27.83;13.95;;;-1.40;99.90;;;;;;5076141;28;20044;-39
2024/01/11 08:23:10;;;;;;;33.28;14.15;;;-1.30;99.90;;;;;;5076192;28;20047;-39
2024/01/11 08:25:36;;;;;;;30.58;12.68;;;-1.30;99.90;;;;;;5076128;28;20076;-39
2024/01/11 08:28:02;;;;;;;31.02;12.40;;;-1.30;99.90;;;;;;5074723;28;20109;-39
2024/01/11 08:30:28;;;;;;;29.02;13.63;;;-1.20;99.90;;;;;;5075107;28;20057;-39
2024/01/11 08:32:55;;;;;;;29.73;14.18;;;-1.20;99.90;;;;;;5074800;28;20114;-39
2024/01/11 08:35:21;;;;;;;26.67;12.20;;;-1.20;99.90;;;;;;5076166;28;20048;-39
2024/01/11 08:37:47;;;;;;;30.73;14.25;;;-1.20;99.90;;;;;;5075846;28;20465;-39
2024/01/11 08:40:13;;;;;;;31.00;13.05;;;-1.20;99.90;;;;;;5075689;28;20507;-39
2024/01/11 08:42:41;;;;;;;28.33;13.63;;;-1.10;99.90;;;;;;5075913;28;20048;-39
2024/01/11 08:45:07;;;;;;;32.95;14.20;;;-1.10;99.90;;;;;;5075878;28;20048;-39
2024/01/11 08:47:35;;;;;;;32.87;14.47;;;-1.10;99.90;;;;;;5075832;28;20083;-39
2024/01/11 08:50:05;;;;;;;30.10;13.35;;;-1.10;99.90;;;;;;5075839;28;20124;-39
2024/01/11 08:52:32;;;;;;;27.85;13.02;;;-1.10;99.90;;;;;;5075757;28;20233;-39
2024/01/11 08:54:58;;;;;;;30.15;14.45;;;-1.00;99.90;;;;;;5075300;28;20044;-39
2024/01/11 08:57:23;;;;;;;31.20;13.40;;;-0.90;99.90;;;;;;5074890;28;20049;-39
2024/01/11 08:59:49;;;;;;;26.95;11.82;;;-0.90;99.90;;;;;;5075460;28;20044;-39
2024/01/11 09:02:15;;;;;;;28.23;12.75;;;-0.90;99.90;;;;;;5074382;28;20134;-39
2024/01/11 09:04:41;;;;;;;25.40;11.25;;;-0.80;99.90;;;;;;5075249;28;20043;-39
2024/01/11 09:07:06;;;;;;;24.40;10.93;;;-0.80;99.90;;;;;;5075353;28;20079;-39
2024/01/11 09:09:32;;;;;;;26.73;11.90;;;-0.70;99.90;;;;;;5073030;28;20075;-39
2024/01/11 09:11:58;;;;;;;24.77;11.82;;;-0.70;99.90;;;;;;5075339;28;20062;-39
2024/01/11 09:14:23;;;;;;;27.70;12.40;;;-0.60;99.90;;;;;;5075156;28;20040;-39
2024/01/11 09:16:49;;;;;;;29.15;12.35;;;-0.60;99.90;;;;;;5075133;28;20052;-39
2024/01/11 09:19:15;;;;;;;24.65;10.98;;;-0.60;99.90;;;;;;5075358;28;20048;-39
2024/01/11 09:21:42;;;;;;;26.50;12.10;;;-0.50;99.90;;;;;;5075220;28;20483;-39
2024/01/11 09:24:07;;;;;;;26.45;12.27;;;-0.50;99.90;;;;;;5075111;28;20040;-40
2024/01/11 09:26:33;;;;;;;27.15;12.30;;;-0.50;99.90;;;;;;5075072;28;20044;-40
2024/01/11 09:28:59;;;;;;;24.08;12.18;;;-0.40;99.90;;;;;;5075398;28;20202;-39
2024/01/11 09:31:25;;;;;;;24.88;11.40;;;-0.40;99.90;;;;;;5074816;28;20049;-39
2024/01/11 09:33:50;;;;;;;27.33;12.82;;;-0.40;99.90;;;;;;5074903;28;20036;-39
2024/01/11 09:36:16;;;;;;;28.63;13.23;;;-0.30;99.90;;;;;;5074869;28;20083;-40
2024/01/11 09:38:42;;;;;;;25.85;12.65;;;-0.30;99.90;;;;;;5074835;28;20045;-40
2024/01/11 09:41:10;;;;;;;33.17;13.38;;;-0.30;99.90;;;;;;5074770;28;20048;-40
2024/01/11 09:43:36;;;;;;;27.73;13.15;;;-0.30;99.90;;;;;;5075218;28;20115;-40
2024/01/11 09:46:06;;;;;;;30.67;13.45;;;-0.20;99.90;;;;;;5074766;28;20454;-40
2024/01/11 09:48:38;;;;;;;29.25;13.55;;;-0.20;99.90;;;;;;5073721;28;20057;-40
2024/01/11 09:51:10;;;;;;;28.45;13.82;;;-0.20;99.90;;;;;;5074400;28;20060;-39
2024/01/11 09:53:38;;;;;;;30.17;14.20;;;-0.20;99.90;;;;;;5073186;28;20111;-40
2024/01/11 09:56:08;;;;;;;28.50;13.02;;;-0.10;99.90;;;;;;5074475;28;20045;-39
2024/01/11 09:58:38;;;;;;;30.27;12.10;;;-0.10;99.90;;;;;;5074623;28;20054;-40
2024/01/11 10:01:10;;;;;;;29.05;12.82;;;-0.10;99.90;;;;;;5074408;28;20053;-39
2024/01/11 10:03:36;;;;;;;24.00;11.88;;;-0.10;99.90;;;;;;5074374;28;20041;-40
2024/01/11 10:06:03;;;;;;;27.35;11.80;;;-0.10;99.90;;;;;;5074003;28;20056;-40
2024/01/11 10:08:30;;;;;;;24.88;11.73;;;0.00;99.90;;;;;;5074293;28;20045;-39
2024/01/11 10:10:55;;;;;;;28.35;11.68;;;0.00;99.90;;;;;;5074129;28;20049;-40
2024/01/11 10:13:29;;;;;;;28.17;13.02;;;0.00;99.90;;;;;;5073989;28;20047;-40
2024/01/11 10:16:15;;;;;;;25.02;12.48;;;0.00;99.90;;;;;;5072803;28;20053;-40
2024/01/11 10:18:42;;;;;;;29.50;12.23;;;0.10;99.90;;;;;;5074126;28;20110;-40
2024/01/11 10:21:09;;;;;;;26.08;12.40;;;0.10;99.90;;;;;;5072548;28;20051;-40
2024/01/11 10:23:35;;;;;;;22.65;11.85;;;0.10;99.90;;;;;;5073891;28;20549;-40
2024/01/11 10:26:02;;;;;;;26.88;11.55;;;0.10;99.90;;;;;;5072817;28;20142;-40
2024/01/11 10:28:28;;;;;;;23.95;11.65;;;0.10;99.90;;;;;;5073829;28;20127;-39
2024/01/11 10:30:55;;;;;;;25.50;11.70;;;0.20;99.90;;;;;;5073655;28;20040;-40
2024/01/11 10:33:21;;;;;;;;;;;0.20;99.90;;;;;;5074364;28;20040;-40
2024/01/11 10:35:50;;;;;;;24.58;10.65;;;0.30;99.90;;;;;;5073683;28;20385;-40
2024/01/11 10:38:17;;;;;;;28.85;11.60;;;0.30;99.90;;;;;;5072914;28;20055;-40
2024/01/11 10:40:43;;;;;;;;;;;0.30;99.90;;;;;;5074197;28;20484;-39
2024/01/11 10:43:15;;;;;;;22.38;10.52;;;0.30;99.90;;;;;;5073664;28;19920;-39
2024/01/11 10:45:42;;;;;;;24.05;11.57;;;0.40;99.90;;;;;;5073840;28;20048;-40
2024/01/11 10:48:14;;;;;;;22.30;10.77;;;0.40;99.90;;;;;;5073778;28;20056;-40
2024/01/11 10:50:43;;;;;;;21.92;11.32;;;0.40;99.90;;;;;;5072879;28;20058;-39
2024/01/11 10:53:39;;;;;;;22.85;10.00;;;0.50;99.90;;;;;;5072521;28;20127;-39
2024/01/11 10:56:06;;;;;;;22.40;10.30;;;0.50;99.90;;;;;;5074115;28;20067;-40
2024/01/11 10:58:35;;;;;;;22.70;10.43;;;0.50;99.90;;;;;;5073634;28;20052;-39
2024/01/11 11:01:04;;;;;;;27.80;12.48;;;0.50;99.90;;;;;;5073576;28;20048;-39
2024/01/11 11:03:31;;;;;;;27.00;11.50;;;0.60;99.90;;;;;;5073505;28;20076;-39
2024/01/11 11:05:58;;;;;;;28.92;11.55;;;0.60;99.90;;;;;;5073388;28;20052;-39
2024/01/11 11:08:26;;;;;;;26.05;12.18;;;0.60;99.90;;;;;;5073478;28;20101;-39
2024/01/11 11:10:57;;;;;;;25.88;11.45;;;0.60;99.90;;;;;;5073861;28;20053;-39
2024/01/11 11:13:23;;;;;;;24.38;10.73;;;0.70;99.90;;;;;;5073215;28;20480;-39
2024/01/11 11:15:49;;;;;;;23.40;10.93;;;0.70;99.90;;;;;;5073181;28;20056;-39
2024/01/11 11:18:16;;;;;;;24.92;11.38;;;0.70;99.90;;;;;;5072197;28;20102;-39
2024/01/11 11:20:42;;;;;;;24.67;11.10;;;0.70;99.90;;;;;;5073363;28;20088;-39
2024/01/11 11:23:12;;;;;;;24.25;11.45;;;0.80;99.90;;;;;;5073174;28;20044;-39
2024/01/11 11:25:40;;;;;;;23.27;10.93;;;0.80;99.90;;;;;;5073388;28;20507;-39
2024/01/11 11:28:07;;;;;;;24.90;10.98;;;0.80;99.90;;;;;;5073362;28;20049;-39
2024/01/11 11:30:36;;;;;;;28.08;11.52;;;0.80;99.90;;;;;;5073181;28;20041;-39
2024/01/11 11:33:18;;;;;;;23.65;11.25;;;0.80;99.90;;;;;;5075728;28;20044;-39
2024/01/11 11:35:46;;;;;;;23.85;10.57;;;0.80;99.90;;;;;;5077107;28;20373;-39
2024/01/11 11:38:20;;;;;;;22.90;10.48;;;0.80;99.90;;;;;;5077752;28;20040;-39
2024/01/11 11:40:52;;;;;;;22.52;10.07;;;0.90;99.90;;;;;;5077078;28;20502;-39
2024/01/11 11:43:19;;;;;;;20.63;10.20;;;0.90;99.90;;;;;;5077169;28;20112;-39
2024/01/11 11:45:47;;;;;;;21.48;10.05;;;0.90;99.90;;;;;;5076123;28;20052;-39
2024/01/11 11:48:36;;;;;;;22.00;10.32;;;0.90;99.90;;;;;;5076763;28;20036;-39
2024/01/11 11:51:14;;;;;;;21.02;10.00;;;0.90;99.90;;;;;;5076993;28;20048;-39
2024/01/11 11:53:41;;;;;;;22.40;10.90;;;0.90;99.90;;;;;;5076774;28;20472;-39
2024/01/11 11:56:09;;;;;;;23.00;10.52;;;1.00;99.90;;;;;;5075914;28;20053;-39
2024/01/11 11:58:35;;;;;;;22.15;10.27;;;1.00;99.90;;;;;;5076684;28;20442;-39
2024/01/11 12:01:02;;;;;;;23.73;11.02;;;1.00;99.90;;;;;;5076572;28;20097;-39
2024/01/11 12:03:38;;;;;;;22.83;10.20;;;1.00;99.90;;;;;;5076911;28;20045;-39
2024/01/11 12:06:06;;;;;;;22.95;9.88;;;1.00;99.90;;;;;;5076541;28;20511;-39
2024/01/11 12:08:32;;;;;;;23.35;10.82;;;1.00;99.90;;;;;;5076592;28;20044;-39
2024/01/11 12:10:59;;;;;;;22.05;10.23;;;0.90;99.90;;;;;;5076394;28;20377;-39
2024/01/11 12:13:25;;;;;;;22.88;9.88;;;1.00;99.90;;;;;;5076451;28;20040;-39
2024/01/11 12:15:51;;;;;;;22.52;9.25;;;1.10;99.90;;;;;;5076266;28;20063;-39
2024/01/11 12:18:17;;;;;;;23.85;10.23;;;1.00;99.90;;;;;;5076393;28;20048;-39
2024/01/11 12:20:43;;;;;;;22.38;10.50;;;1.00;99.90;;;;;;5076365;28;20083;-39
2024/01/11 12:23:09;;;;;;;24.33;11.27;;;1.00;99.90;;;;;;5076263;28;20116;-40
2024/01/11 12:25:36;;;;;;;24.95;10.88;;;1.10;99.90;;;;;;5076001;28;20045;-40
2024/01/11 12:28:02;;;;;;;21.55;11.05;;;1.00;99.90;;;;;;5076023;28;20391;-40